KEVB/EVB METAR and TAF weather

Enter ICAO airport designator
Station Type Date Time Source
KEVB METAR 2020/01/26 00:47 UTC NOAA

KEVB 260047Z 00000KT 10SM CLR 10/09 A3009


Station Type Date Time Source
KEVB Decoded METAR 2020/01/26 00:47 UTC NOAA

New Smyrna Beach, New Smyrna Beach Municipal Airport, FL, United States (KEVB) 29-03-20N 080-56-54W
Jan 25, 2020 - 07:47 PM EST / 2020.01.26 0047 UTC
Wind: Calm:0
Visibility: 10 mile(s):0
Sky conditions: clear
Temperature: 50 F (10 C)
Dew Point: 48 F (9 C)
Relative Humidity: 93%
Pressure (altimeter): 30.09 in. Hg (1018 hPa)
ob: KEVB 260047Z 00000KT 10SM CLR 10/09 A3009
cycle: 1

Station Type Date Time Source
KEVB TAF UTC NOAA

Error!

Example: see airport list